Time;durP1;ratioP1;P1;durP2;ratioP2;P2;SDS_P1;SDS_P2;PMS_P1;PMS_P2;Temp;Humidity;BMP_temperature;BMP_pressure;BME280_temperature;BME280_humidity;BME280_pressure;Samples;Min_cycle;Max_cycle;Signal;HPM_P1;HPM_P2
2022/02/16 00:02:20;;;;;;;14.13;7.15;;;;;;;9.48;52.71;97631.28;4979376;28;20120;-83
2022/02/16 00:04:47;;;;;;;16.67;8.50;;;;;;;9.35;53.34;97643.59;4978831;28;20125;-84
2022/02/16 00:07:12;;;;;;;14.50;7.97;;;;;;;9.32;53.03;97633.06;4979084;28;20571;-84
2022/02/16 00:09:38;;;;;;;13.15;7.60;;;;;;;9.25;53.01;97619.25;4978275;28;20029;-84
2022/02/16 00:12:04;;;;;;;15.10;8.07;;;;;;;9.29;53.48;97619.06;4978905;28;20489;-83
2022/02/16 00:14:30;;;;;;;14.00;7.10;;;;;;;9.37;52.97;97622.16;4979056;28;20053;-84
2022/02/16 00:16:56;;;;;;;13.75;7.20;;;;;;;9.43;52.56;97616.47;5027406;28;20068;-83
2022/02/16 00:19:22;;;;;;;12.80;6.30;;;;;;;9.58;52.42;97624.47;5014015;28;20403;-84
2022/02/16 00:21:47;;;;;;;12.88;7.20;;;;;;;9.55;52.57;97610.44;4998034;28;20540;-84
2022/02/16 00:24:13;;;;;;;13.57;6.93;;;;;;;9.60;52.12;97614.56;5015193;28;20017;-83
2022/02/16 00:26:38;;;;;;;14.43;6.95;;;;;;;9.75;51.76;97618.19;4998683;28;20091;-83
2022/02/16 00:29:04;;;;;;;10.10;5.00;;;;;;;9.89;51.25;97617.38;4998160;28;20072;-84
2022/02/16 00:31:30;;;;;;;14.73;7.90;;;;;;;9.94;51.43;97618.81;5031079;28;20412;-83
2022/02/16 00:33:56;;;;;;;14.40;7.40;;;;;;;9.92;51.34;97620.72;5015242;28;20043;-84
2022/02/16 00:36:21;;;;;;;16.23;7.15;;;;;;;9.96;51.35;97616.06;4998409;28;20083;-82
2022/02/16 00:38:47;;;;;;;15.23;7.25;;;;;;;10.01;51.49;97620.19;5014912;28;20029;-83
2022/02/16 00:41:13;;;;;;;15.57;8.23;;;;;;;10.00;51.11;97614.94;5015440;28;20074;-84
2022/02/16 00:43:38;;;;;;;15.80;8.13;;;;;;;9.96;52.21;97608.06;5014784;28;20033;-83
2022/02/16 00:46:04;;;;;;;14.50;6.35;;;;;;;10.09;50.91;97611.75;5014746;28;20095;-83
2022/02/16 00:48:30;;;;;;;6.80;3.97;;;;;;;10.16;50.31;97608.63;5014754;28;20029;-82
2022/02/16 00:50:55;;;;;;;10.13;5.25;;;;;;;10.31;50.09;97629.09;5014571;28;20029;-83
2022/02/16 00:53:21;;;;;;;11.75;6.43;;;;;;;10.33;50.18;97621.88;5014594;28;20025;-84
2022/02/16 00:55:48;;;;;;;18.42;6.15;;;;;;;10.36;50.01;97628.84;4997633;28;20508;-84
2022/02/16 00:58:13;;;;;;;13.00;6.88;;;;;;;10.33;49.90;97616.53;4996879;28;20052;-83
2022/02/16 01:00:39;;;;;;;11.50;7.20;;;;;;;10.31;50.12;97610.38;5013442;28;20021;-85
2022/02/16 01:03:05;;;;;;;9.27;4.68;;;;;;;10.36;49.62;97601.25;4997469;28;20029;-83
2022/02/16 01:05:31;;;;;;;20.85;8.77;;;;;;;10.44;49.76;97606.97;4997191;28;20116;-84
2022/02/16 01:07:57;;;;;;;14.30;6.60;;;;;;;10.34;49.48;97588.81;4997093;28;20048;-85
2022/02/16 01:10:23;;;;;;;12.63;7.53;;;;;;;10.34;50.01;97593.28;5013389;28;20107;-84
2022/02/16 01:12:49;;;;;;;12.13;6.47;;;;;;;10.33;49.87;97591.59;5013948;28;20536;-83
2022/02/16 01:15:17;;;;;;;18.48;7.20;;;;;;;10.25;49.75;97583.16;5013140;28;20071;-85
2022/02/16 01:17:43;;;;;;;12.75;7.10;;;;;;;10.32;49.90;97600.56;5013491;28;20031;-85
2022/02/16 01:20:10;;;;;;;14.07;7.35;;;;;;;10.28;50.14;97602.56;4998827;28;20063;-84
2022/02/16 01:22:35;;;;;;;9.00;5.22;;;;;;;10.37;49.22;97602.97;5001093;28;20409;-84
2022/02/16 01:25:03;;;;;;;10.80;6.78;;;;;;;10.29;49.37;97585.56;5017138;28;20029;-84
2022/02/16 01:27:29;;;;;;;15.30;6.32;;;;;;;10.42;49.12;97584.81;5017162;28;20052;-84
2022/02/16 01:29:54;;;;;;;12.82;5.40;;;;;;;10.44;48.66;97565.06;5015759;28;20029;-83
2022/02/16 01:32:20;;;;;;;9.60;5.10;;;;;;;10.70;47.91;97566.13;5017229;28;20037;-86
2022/02/16 01:34:46;;;;;;;10.57;5.32;;;;;;;10.76;47.58;97552.38;5017453;28;20025;-86
2022/02/16 01:37:12;;;;;;;14.93;5.85;;;;;;;10.83;47.57;97548.34;5017357;28;20044;-84
2022/02/16 01:39:37;;;;;;;5.93;3.20;;;;;;;10.88;47.25;97551.59;5017433;28;20021;-84
2022/02/16 01:42:06;;;;;;;11.07;5.35;;;;;;;10.86;47.38;97538.31;5000823;28;20030;-85
2022/02/16 01:44:32;;;;;;;12.15;5.18;;;;;;;10.83;47.58;97540.31;5017395;28;20033;-84
2022/02/16 01:47:04;;;;;;;9.30;5.45;;;;;;;10.85;47.46;97543.78;5017081;28;20530;-83
2022/02/16 01:49:33;;;;;;;12.05;6.05;;;;;;;10.81;47.70;97535.06;5017298;28;20108;-84
2022/02/16 01:51:59;;;;;;;8.80;4.97;;;;;;;10.84;47.03;97532.19;5016980;28;20034;-83
2022/02/16 01:54:25;;;;;;;10.63;4.97;;;;;;;10.84;47.42;97521.50;5008047;28;20034;-91
2022/02/16 01:56:51;;;;;;;6.38;3.83;;;;;;;10.90;47.03;97512.22;5024363;28;20037;-90
2022/02/16 01:59:18;;;;;;;12.30;4.30;;;;;;;10.80;47.24;97508.41;5008192;28;20036;-90
2022/02/16 02:01:44;;;;;;;12.80;4.90;;;;;;;10.92;47.42;97530.88;5008057;28;20432;-91
2022/02/16 02:04:10;;;;;;;7.40;4.38;;;;;;;10.67;47.47;97499.44;5007446;28;20599;-90
2022/02/16 02:06:36;;;;;;;12.52;5.63;;;;;;;10.52;47.54;97465.66;5027856;28;20067;-91
2022/02/16 02:09:02;;;;;;;7.53;4.97;;;;;;;10.79;47.49;97501.34;5028256;28;20026;-91
2022/02/16 02:11:28;;;;;;;13.27;7.47;;;;;;;10.47;49.21;97515.88;5008038;28;20045;-91
2022/02/16 02:14:00;;;;;;;15.00;7.78;;;;;;;10.24;50.49;97528.00;5026119;28;20026;-91
2022/02/16 02:16:26;;;;;;;17.70;7.40;;;;;;;9.66;51.56;97514.53;5008185;28;20139;-91
2022/02/16 02:18:52;;;;;;;14.80;7.00;;;;;;;9.47;51.83;97513.91;5010358;28;20036;-90
2022/02/16 02:21:21;;;;;;;19.13;8.48;;;;;;;9.42;52.91;97521.31;5030269;28;20064;-91
2022/02/16 02:23:48;;;;;;;15.38;6.93;;;;;;;9.41;52.78;97530.28;5013223;28;20059;-91
2022/02/16 02:26:14;;;;;;;9.05;5.72;;;;;;;9.27;52.52;97510.56;5008120;28;20021;-90
2022/02/16 02:28:41;;;;;;;11.40;5.97;;;;;;;9.66;51.81;97528.75;5010663;28;20032;-91
2022/02/16 02:31:06;;;;;;;8.55;4.90;;;;;;;10.00;50.34;97503.56;5011215;28;20048;-92
2022/02/16 02:33:37;;;;;;;6.78;3.08;;;;;;;10.11;49.64;97471.72;5007596;28;20246;-91
2022/02/16 02:36:05;;;;;;;9.23;4.63;;;;;;;10.33;49.02;97488.19;5002431;28;20034;-88
2022/02/16 02:38:31;;;;;;;9.07;5.20;;;;;;;10.45;49.02;97497.25;5007579;28;20584;-91
2022/02/16 02:40:59;;;;;;;11.13;5.35;;;;;;;10.51;48.71;97504.03;5009169;28;20053;-90
2022/02/16 02:43:25;;;;;;;10.20;5.80;;;;;;;10.65;48.65;97506.69;5009608;28;20033;-90
2022/02/16 02:45:52;;;;;;;10.35;5.93;;;;;;;10.56;48.96;97478.72;5008463;28;20029;-91
2022/02/16 02:48:22;;;;;;;14.18;7.53;;;;;;;10.50;50.10;97511.19;5009656;28;20030;-91
2022/02/16 02:50:49;;;;;;;11.27;6.50;;;;;;;10.32;50.47;97529.25;5008272;28;20041;-92
2022/02/16 02:53:15;;;;;;;18.20;7.43;;;;;;;9.90;52.06;97542.50;5003858;28;20032;-90
2022/02/16 02:55:40;;;;;;;11.30;6.38;;;;;;;9.78;51.42;97508.50;5004218;28;20405;-89
2022/02/16 02:58:06;;;;;;;11.07;6.05;;;;;;;9.91;51.05;97517.47;5002693;28;20029;-90
2022/02/16 03:00:35;;;;;;;9.40;5.40;;;;;;;9.79;51.52;97508.38;5025843;28;20031;-91
2022/02/16 03:03:00;;;;;;;11.00;5.45;;;;;;;9.91;50.73;97509.47;5028186;28;20100;-91
2022/02/16 03:05:26;;;;;;;11.10;5.50;;;;;;;10.03;50.24;97481.16;5025645;28;20032;-90
2022/02/16 03:07:52;;;;;;;13.27;6.10;;;;;;;10.18;51.12;97529.19;5021976;28;20033;-90
2022/02/16 03:10:18;;;;;;;13.88;7.10;;;;;;;9.93;51.79;97522.75;5022245;28;20049;-91
2022/02/16 03:12:43;;;;;;;13.63;6.60;;;;;;;9.79;51.99;97528.88;5009791;28;20025;-91
2022/02/16 03:15:12;;;;;;;17.15;7.60;;;;;;;9.50;52.97;97535.97;5015887;28;20032;-92
2022/02/16 03:17:40;;;;;;;11.23;6.53;;;;;;;9.35;54.11;97541.31;5015879;28;20029;-90
2022/02/16 03:20:07;;;;;;;15.25;7.35;;;;;;;8.91;54.69;97527.81;5015688;28;20028;-91
2022/02/16 03:22:40;;;;;;;16.25;9.00;;;;;;;8.85;55.04;97533.47;5012398;28;20136;-92
2022/02/16 03:25:09;;;;;;;;;;;;;;;9.04;54.58;97548.38;5007563;28;20044;-90
2022/02/16 03:27:35;;;;;;;11.90;6.78;;;;;;;8.90;55.10;97512.72;5002916;28;20372;-90
2022/02/16 03:30:01;;;;;;;13.43;7.25;;;;;;;8.91;54.84;97539.34;5002785;28;20034;-88
2022/02/16 03:32:27;;;;;;;14.30;7.13;;;;;;;8.84;55.07;97513.94;5002731;28;20455;-90
2022/02/16 03:34:52;;;;;;;16.85;7.50;;;;;;;8.84;55.11;97495.28;5019047;28;20156;-89
2022/02/16 03:37:18;;;;;;;21.50;7.43;;;;;;;8.96;55.52;97531.06;5018770;28;20489;-89
2022/02/16 03:39:44;;;;;;;20.88;7.65;;;;;;;8.97;55.50;97531.00;5018861;28;20032;-90
2022/02/16 03:42:10;;;;;;;22.45;7.80;;;;;;;9.00;56.13;97541.50;5002838;28;20033;-91
2022/02/16 03:44:36;;;;;;;8.13;5.15;;;;;;;8.97;54.79;97530.13;5000295;28;20025;-84
2022/02/16 03:47:02;;;;;;;17.52;6.88;;;;;;;9.09;55.34;97532.97;4998983;28;20406;-84
2022/02/16 03:49:31;;;;;;;15.30;6.55;;;;;;;9.07;55.47;97524.19;5014141;28;20030;-84
2022/02/16 03:51:56;;;;;;;12.70;6.70;;;;;;;8.96;55.88;97521.25;4998724;28;20029;-85
2022/02/16 03:54:22;;;;;;;19.17;8.02;;;;;;;8.97;55.83;97531.00;5014475;28;20095;-85
2022/02/16 03:56:47;;;;;;;12.70;6.78;;;;;;;9.04;55.27;97510.16;4998230;28;20040;-85
2022/02/16 03:59:13;;;;;;;15.15;6.70;;;;;;;9.13;54.91;97529.19;4997988;28;20481;-85
2022/02/16 04:01:38;;;;;;;16.08;7.10;;;;;;;8.94;55.94;97516.97;4998555;28;20082;-84
2022/02/16 04:04:04;;;;;;;16.17;7.28;;;;;;;8.86;56.37;97520.03;5014647;28;20029;-85
2022/02/16 04:06:30;;;;;;;15.38;7.78;;;;;;;8.82;56.74;97528.31;4997977;28;20025;-84
2022/02/16 04:08:55;;;;;;;17.23;7.85;;;;;;;8.63;57.49;97541.78;4997600;28;20017;-84
2022/02/16 04:11:26;;;;;;;16.40;7.95;;;;;;;8.50;57.91;97543.38;5014729;28;20029;-85
2022/02/16 04:13:53;;;;;;;10.02;5.25;;;;;;;8.75;55.72;97505.59;5015304;28;20044;-85
2022/02/16 04:16:19;;;;;;;21.27;8.30;;;;;;;8.73;56.56;97508.34;5013666;28;20041;-85
2022/02/16 04:18:44;;;;;;;18.50;8.55;;;;;;;8.68;57.04;97505.94;5014309;28;20026;-86
2022/02/16 04:21:10;;;;;;;34.53;13.48;;;;;;;8.76;57.46;97518.84;4997921;28;20056;-85
2022/02/16 04:23:36;;;;;;;21.45;9.25;;;;;;;8.86;56.29;97536.03;4997847;28;20033;-84
2022/02/16 04:26:01;;;;;;;25.65;10.63;;;;;;;8.97;56.21;97514.97;5014447;28;20044;-84
2022/02/16 04:28:27;;;;;;;23.67;9.15;;;;;;;8.95;56.34;97516.03;4998602;28;20464;-84
2022/02/16 04:30:55;;;;;;;16.55;7.65;;;;;;;8.91;55.40;97512.66;5013913;28;20084;-85
2022/02/16 04:33:21;;;;;;;17.55;7.68;;;;;;;9.16;55.45;97509.47;5014904;28;20470;-85
2022/02/16 04:35:46;;;;;;;10.73;5.63;;;;;;;9.36;53.44;97502.97;5014207;28;20113;-85
2022/02/16 04:38:12;;;;;;;14.18;8.00;;;;;;;9.72;52.09;97498.19;4996791;28;20018;-84
2022/02/16 04:40:38;;;;;;;14.10;8.93;;;;;;;9.94;51.31;97489.72;5014450;28;20021;-82
2022/02/16 04:43:05;;;;;;;12.52;7.35;;;;;;;9.97;53.04;97513.56;4998132;28;20505;-84
2022/02/16 04:45:32;;;;;;;10.88;7.20;;;;;;;9.86;53.44;97516.91;4998025;28;20031;-85
2022/02/16 04:47:59;;;;;;;15.18;6.20;;;;;;;9.49;54.45;97506.66;4997339;28;20501;-84
2022/02/16 04:50:24;;;;;;;15.38;8.13;;;;;;;9.17;56.23;97513.84;5015118;28;20112;-85
2022/02/16 04:52:54;;;;;;;13.48;7.78;;;;;;;9.01;56.69;97503.16;5014341;28;20033;-86
2022/02/16 04:55:21;;;;;;;15.90;7.35;;;;;;;8.83;57.33;97512.22;5015951;28;20485;-85
2022/02/16 04:57:47;;;;;;;13.98;6.88;;;;;;;8.64;57.98;97509.69;5001861;28;20032;-88
2022/02/16 05:00:14;;;;;;;29.10;10.10;;;;;;;8.64;58.30;97541.69;5018598;28;20033;-85
2022/02/16 05:02:39;;;;;;;25.90;11.52;;;;;;;8.57;59.06;97528.78;5006857;28;20036;-85
2022/02/16 05:05:06;;;;;;;23.80;11.05;;;;;;;8.40;59.41;97528.84;5010737;28;20111;-85
2022/02/16 05:07:32;;;;;;;30.40;12.85;;;;;;;8.49;59.14;97533.69;5025256;28;20035;-86
2022/02/16 05:09:58;;;;;;;27.90;11.13;;;;;;;8.47;58.90;97514.22;5011659;28;20030;-86
2022/02/16 05:12:23;;;;;;;16.77;8.98;;;;;;;8.53;58.79;97517.44;5033299;28;20126;-86
2022/02/16 05:14:49;;;;;;;17.15;8.85;;;;;;;8.45;59.53;97540.13;5015540;28;20139;-84
2022/02/16 05:17:14;;;;;;;31.63;12.00;;;;;;;8.27;60.47;97519.75;5035235;28;20052;-85
2022/02/16 05:19:40;;;;;;;20.40;10.90;;;;;;;8.40;60.05;97536.84;5018059;28;20032;-84
2022/02/16 05:22:06;;;;;;;13.23;7.82;;;;;;;8.31;59.84;97532.84;5021335;28;20123;-86
2022/02/16 05:24:32;;;;;;;23.02;8.30;;;;;;;8.21;59.87;97525.41;5021476;28;20057;-86
2022/02/16 05:26:58;;;;;;;23.58;8.73;;;;;;;8.08;60.72;97525.19;5035682;28;20087;-84
2022/02/16 05:29:23;;;;;;;17.67;8.85;;;;;;;8.08;61.33;97547.38;5020147;28;20471;-85
2022/02/16 05:31:49;;;;;;;34.22;12.95;;;;;;;7.70;62.46;97508.53;5017172;28;20041;-83
2022/02/16 05:34:16;;;;;;;29.02;10.80;;;;;;;7.87;62.60;97535.16;5036549;28;20068;-86
2022/02/16 05:36:42;;;;;;;39.03;11.82;;;;;;;7.85;62.94;97539.69;5033501;28;20029;-84
2022/02/16 05:39:08;;;;;;;23.50;11.88;;;;;;;7.78;62.69;97534.75;5020042;28;20033;-82
2022/02/16 05:41:33;;;;;;;22.35;11.77;;;;;;;7.78;63.26;97532.97;5036092;28;20451;-84
2022/02/16 05:43:59;;;;;;;39.13;17.27;;;;;;;7.83;64.07;97538.91;5020059;28;20468;-84
2022/02/16 05:46:25;;;;;;;43.20;19.95;;;;;;;7.92;62.11;97538.44;5020100;28;20024;-85
2022/02/16 05:48:50;;;;;;;55.63;24.40;;;;;;;8.10;61.72;97549.94;5036179;28;20025;-82
2022/02/16 05:51:16;;;;;;;39.22;18.27;;;;;;;8.38;61.10;97536.91;5036061;28;20044;-81
2022/02/16 05:53:42;;;;;;;46.03;17.50;;;;;;;8.42;60.46;97534.94;5022181;28;20111;-81
2022/02/16 05:56:08;;;;;;;39.25;14.70;;;;;;;8.60;58.27;97517.97;5019618;28;20029;-82
2022/02/16 05:58:34;;;;;;;40.88;17.92;;;;;;;8.69;59.09;97522.78;5032715;28;20404;-82
2022/02/16 06:01:03;;;;;;;34.35;14.52;;;;;;;8.93;58.26;97525.91;5035976;28;20116;-81
2022/02/16 06:03:29;;;;;;;19.58;7.55;;;;;;;9.33;55.27;97512.03;5034697;28;20079;-82
2022/02/16 06:05:54;;;;;;;26.55;11.98;;;;;;;9.68;53.55;97512.66;5051849;28;20566;-82
2022/02/16 06:08:20;;;;;;;21.23;10.20;;;;;;;9.92;53.98;97513.84;5018808;28;20104;-82
2022/02/16 06:10:46;;;;;;;19.63;9.18;;;;;;;10.15;53.11;97518.69;5019210;28;20356;-82
2022/02/16 06:13:13;;;;;;;18.40;7.63;;;;;;;10.21;53.20;97518.31;5035393;28;20361;-82
2022/02/16 06:15:39;;;;;;;20.98;7.22;;;;;;;10.22;53.23;97512.03;5048792;28;20061;-83
2022/02/16 06:18:05;;;;;;;23.20;8.13;;;;;;;10.42;52.81;97528.69;5015217;28;20084;-81
2022/02/16 06:20:30;;;;;;;14.57;7.10;;;;;;;10.57;52.04;97528.59;5017106;28;20043;-82
2022/02/16 06:22:56;;;;;;;23.70;9.43;;;;;;;10.70;51.97;97532.22;5051889;28;20033;-81
2022/02/16 06:25:25;;;;;;;20.80;8.50;;;;;;;10.70;51.63;97540.25;5035169;28;20444;-81
2022/02/16 06:27:51;;;;;;;25.42;10.82;;;;;;;10.61;51.83;97545.31;5018614;28;20029;-81
2022/02/16 06:30:16;;;;;;;19.23;8.38;;;;;;;10.59;51.87;97534.69;5015157;28;20120;-82
2022/02/16 06:32:44;;;;;;;13.15;8.00;;;;;;;10.79;51.57;97539.69;5033880;28;20038;-81
2022/02/16 06:35:10;;;;;;;20.60;8.35;;;;;;;10.77;51.41;97546.91;5018562;28;20108;-82
2022/02/16 06:37:36;;;;;;;26.67;11.18;;;;;;;10.66;51.76;97544.06;5034800;28;20035;-82
2022/02/16 06:40:01;;;;;;;33.15;14.80;;;;;;;10.55;52.12;97551.03;5034195;28;20021;-82
2022/02/16 06:42:27;;;;;;;25.90;12.77;;;;;;;10.80;52.00;97546.72;5017922;28;20030;-81
2022/02/16 06:44:52;;;;;;;27.58;15.20;;;;;;;11.10;51.32;97543.94;5026250;28;20026;-82
2022/02/16 06:47:18;;;;;;;34.90;16.45;;;;;;;11.43;51.30;97530.16;5031553;28;20030;-82
2022/02/16 06:49:44;;;;;;;43.38;21.20;;;;;;;11.54;50.05;97529.44;5017992;28;20017;-82
2022/02/16 06:52:09;;;;;;;46.33;21.20;;;;;;;11.41;50.53;97527.56;5034997;28;20040;-82
2022/02/16 06:54:35;;;;;;;59.97;26.88;;;;;;;11.49;50.75;97544.97;5018068;28;20027;-84
2022/02/16 06:57:01;;;;;;;46.78;20.60;;;;;;;11.25;50.60;97542.94;5018600;28;20029;-83
2022/02/16 06:59:26;;;;;;;39.95;18.40;;;;;;;11.54;50.47;97551.75;5021365;28;20044;-83
2022/02/16 07:01:52;;;;;;;41.67;18.30;;;;;;;12.01;49.14;97548.63;5017483;28;20032;-82
2022/02/16 07:04:18;;;;;;;38.45;17.02;;;;;;;12.42;48.43;97557.38;5015802;28;20025;-83
2022/02/16 07:06:43;;;;;;;28.95;13.82;;;;;;;12.69;47.29;97535.81;5018227;28;20021;-82
2022/02/16 07:09:09;;;;;;;27.80;10.07;;;;;;;12.88;46.34;97538.03;5031056;28;20484;-83
2022/02/16 07:11:34;;;;;;;26.77;9.80;;;;;;;12.82;46.72;97536.66;5015052;28;20025;-83
2022/02/16 07:14:00;;;;;;;20.15;10.43;;;;;;;12.79;46.73;97526.16;5034653;28;20035;-83
2022/02/16 07:16:26;;;;;;;25.58;11.68;;;;;;;12.34;48.23;97546.31;5017803;28;20040;-83
2022/02/16 07:18:51;;;;;;;29.02;11.23;;;;;;;12.39;47.98;97549.53;5017330;28;20032;-82
2022/02/16 07:21:18;;;;;;;23.98;10.32;;;;;;;12.60;47.64;97524.84;5034145;28;20107;-81
2022/02/16 07:23:46;;;;;;;33.33;11.93;;;;;;;12.65;47.18;97533.44;5047473;28;20071;-81
2022/02/16 07:26:12;;;;;;;27.15;14.00;;;;;;;12.35;47.65;97539.97;5030901;28;20025;-81
2022/02/16 07:28:38;;;;;;;42.45;14.88;;;;;;;12.73;47.51;97539.13;5014460;28;20035;-83
2022/02/16 07:31:03;;;;;;;33.20;12.63;;;;;;;13.04;46.20;97526.06;5030791;28;20036;-82
2022/02/16 07:33:29;;;;;;;26.73;11.80;;;;;;;13.06;45.85;97528.66;5017607;28;20192;-82
2022/02/16 07:35:55;;;;;;;21.83;10.93;;;;;;;13.19;45.53;97532.22;5017365;28;20040;-81
2022/02/16 07:38:20;;;;;;;17.83;10.20;;;;;;;13.30;44.89;97512.63;5017773;28;20040;-81
2022/02/16 07:40:47;;;;;;;24.30;12.00;;;;;;;13.36;45.14;97521.09;5017402;28;20032;-82
2022/02/16 07:43:12;;;;;;;28.80;12.63;;;;;;;13.97;44.23;97513.81;5020112;28;20054;-82
2022/02/16 07:45:38;;;;;;;29.60;12.02;;;;;;;14.21;43.42;97506.56;5013836;28;20113;-82
2022/02/16 07:48:04;;;;;;;30.45;11.10;;;;;;;14.38;43.21;97514.22;5016792;28;20033;-82
2022/02/16 07:50:30;;;;;;;25.50;10.82;;;;;;;14.60;42.46;97498.09;5017522;28;20032;-82
2022/02/16 07:52:58;;;;;;;14.00;8.25;;;;;;;14.51;42.41;97493.44;5014142;28;20452;-82
2022/02/16 07:55:26;;;;;;;20.67;8.95;;;;;;;14.57;42.23;97490.28;5014057;28;20029;-82
2022/02/16 07:57:53;;;;;;;22.80;8.85;;;;;;;14.55;42.05;97486.81;5013344;28;20500;-82
2022/02/16 08:00:19;;;;;;;14.45;6.88;;;;;;;14.48;41.35;97484.75;5017099;28;20033;-82
2022/02/16 08:02:44;;;;;;;12.40;7.30;;;;;;;14.41;42.23;97491.59;5033787;28;20087;-82
2022/02/16 08:05:10;;;;;;;25.30;8.65;;;;;;;14.54;42.15;97479.75;5016854;28;20056;-82
2022/02/16 08:07:36;;;;;;;21.52;8.32;;;;;;;14.93;41.64;97480.22;5049949;28;20496;-82
2022/02/16 08:10:02;;;;;;;22.17;8.57;;;;;;;15.59;40.04;97479.28;5032962;28;20021;-82
2022/02/16 08:12:28;;;;;;;17.55;7.82;;;;;;;15.58;39.91;97475.72;5033195;28;20051;-82
2022/02/16 08:14:55;;;;;;;13.82;7.65;;;;;;;15.63;40.32;97484.28;5046516;28;20044;-82
2022/02/16 08:17:20;;;;;;;25.42;8.88;;;;;;;14.86;41.80;97489.81;5029943;28;20133;-82
2022/02/16 08:19:46;;;;;;;28.27;9.60;;;;;;;15.27;40.87;97478.34;5013481;28;20064;-82
2022/02/16 08:22:11;;;;;;;41.97;17.70;;;;;;;15.59;40.15;97482.00;5015294;28;20033;-82
2022/02/16 08:24:37;;;;;;;22.35;12.50;;;;;;;15.55;39.94;97480.53;5016340;28;20025;-82
2022/02/16 08:27:03;;;;;;;17.90;8.63;;;;;;;15.90;39.31;97472.19;5016505;28;20319;-81
2022/02/16 08:29:29;;;;;;;18.77;8.93;;;;;;;16.48;38.00;97460.81;5016894;28;20061;-82
2022/02/16 08:31:54;;;;;;;19.17;8.32;;;;;;;16.67;38.13;97452.81;5037056;28;20033;-81
2022/02/16 08:34:20;;;;;;;24.48;10.20;;;;;;;17.30;37.21;97456.19;5053425;28;20046;-82
2022/02/16 08:36:46;;;;;;;18.95;8.15;;;;;;;18.61;34.88;97442.94;5034019;28;20030;-81
2022/02/16 08:39:11;;;;;;;12.95;7.32;;;;;;;19.19;33.85;97434.59;5021258;28;20036;-82
2022/02/16 08:41:38;;;;;;;23.38;8.70;;;;;;;20.75;31.96;97422.13;5053861;28;20406;-80
2022/02/16 08:44:04;;;;;;;16.67;7.80;;;;;;;21.58;30.65;97407.72;5020322;28;20142;-81
2022/02/16 08:46:32;;;;;;;13.85;7.68;;;;;;;21.99;30.15;97402.34;5050323;28;20236;-81
2022/02/16 08:49:01;;;;;;;21.13;11.70;;;;;;;22.73;29.04;97390.38;5033864;28;20136;-81
2022/02/16 08:51:28;;;;;;;18.70;8.48;;;;;;;22.86;28.54;97385.22;5021031;28;20032;-82
2022/02/16 08:53:54;;;;;;;27.35;9.00;;;;;;;23.21;28.39;97390.22;5040460;28;20032;-80
2022/02/16 08:56:20;;;;;;;21.08;10.57;;;;;;;23.12;27.77;97389.41;5036459;28;20044;-80
2022/02/16 08:58:45;;;;;;;24.55;10.75;;;;;;;22.79;28.89;97395.16;5019933;28;20025;-81
2022/02/16 09:01:11;;;;;;;21.13;10.85;;;;;;;23.84;27.31;97384.56;5017704;28;20069;-82
2022/02/16 09:03:37;;;;;;;17.05;9.70;;;;;;;22.73;28.35;97391.25;5016862;28;20064;-81
2022/02/16 09:06:04;;;;;;;15.90;7.63;;;;;;;22.84;28.05;97379.94;5037815;28;20209;-82
2022/02/16 09:08:29;;;;;;;14.52;6.93;;;;;;;23.57;27.06;97380.47;5055860;28;20033;-80
2022/02/16 09:10:55;;;;;;;13.50;6.85;;;;;;;23.07;27.55;97382.78;5052272;28;20101;-81
2022/02/16 09:13:20;;;;;;;15.05;6.43;;;;;;;23.31;27.93;97385.38;5019848;28;20124;-83
2022/02/16 09:15:46;;;;;;;14.80;7.32;;;;;;;22.80;28.38;97389.50;5035171;28;20083;-82
2022/02/16 09:18:15;;;;;;;105.60;44.20;;;;;;;21.83;29.83;97385.97;5028492;28;20033;-82
2022/02/16 09:20:45;;;;;;;33.20;12.55;;;;;;;21.22;30.77;97392.66;5033563;28;20132;-82
2022/02/16 09:23:11;;;;;;;15.52;7.20;;;;;;;21.68;29.94;97393.09;5026579;28;20098;-82
2022/02/16 09:25:37;;;;;;;14.52;8.13;;;;;;;22.90;28.33;97390.16;5011866;28;20499;-82
2022/02/16 09:28:02;;;;;;;23.17;8.00;;;;;;;23.14;27.95;97389.22;5021808;28;20044;-82
2022/02/16 09:30:29;;;;;;;17.10;7.00;;;;;;;24.52;26.43;97378.19;5017490;28;20130;-83
2022/02/16 09:32:55;;;;;;;18.85;7.13;;;;;;;25.20;25.69;97375.25;5019603;28;20127;-82
2022/02/16 09:35:20;;;;;;;11.95;6.57;;;;;;;25.63;25.33;97371.59;5033516;28;20075;-83
2022/02/16 09:37:47;;;;;;;15.63;6.90;;;;;;;25.98;24.67;97353.44;5028239;28;20133;-83
2022/02/16 09:40:13;;;;;;;13.00;7.10;;;;;;;25.80;24.53;97353.88;5035585;28;20033;-83
2022/02/16 09:42:40;;;;;;;10.45;7.07;;;;;;;26.60;23.85;97348.09;5041828;28;20107;-83
2022/02/16 09:45:06;;;;;;;14.88;6.53;;;;;;;26.65;23.47;97351.06;5024473;28;20036;-83
2022/02/16 09:47:33;;;;;;;14.57;5.30;;;;;;;25.92;23.92;97347.88;5017523;28;20040;-83
2022/02/16 09:50:00;;;;;;;12.88;7.10;;;;;;;26.44;23.76;97355.75;5029397;28;20033;-81
2022/02/16 09:52:26;;;;;;;10.05;5.72;;;;;;;25.13;24.66;97339.56;5026066;28;20033;-82
2022/02/16 09:54:51;;;;;;;12.43;6.70;;;;;;;23.95;26.16;97358.72;5030425;28;20029;-80
2022/02/16 09:57:18;;;;;;;10.45;5.93;;;;;;;23.76;26.41;97346.38;5025715;28;20044;-81
2022/02/16 09:59:44;;;;;;;12.35;6.65;;;;;;;22.90;27.16;97338.31;5049640;28;20034;-82
2022/02/16 10:02:15;;;;;;;33.75;15.48;;;;;;;21.64;28.46;97343.56;5031516;28;20041;-81
2022/02/16 10:04:53;;;;;;;36.27;16.77;;;;;;;19.99;30.82;97348.56;5017946;28;20562;-81
2022/02/16 10:07:38;;;;;;;22.85;11.15;;;;;;;19.39;31.74;97352.06;5004288;28;20473;-81
2022/02/16 10:10:18;;;;;;;10.88;5.95;;;;;;;19.67;31.80;97358.31;5011945;28;20020;-82
2022/02/16 10:12:48;;;;;;;10.43;7.13;;;;;;;20.04;31.29;97342.66;5031684;28;20131;-82
2022/02/16 10:15:16;;;;;;;20.88;7.28;;;;;;;19.16;32.26;97342.69;5024135;28;20489;-82
2022/02/16 10:17:42;;;;;;;11.57;6.20;;;;;;;18.88;32.76;97334.59;5020456;28;20032;-80
2022/02/16 10:20:09;;;;;;;17.05;8.05;;;;;;;18.79;33.04;97331.94;5013510;28;20075;-84
2022/02/16 10:22:46;;;;;;;13.23;5.47;;;;;;;18.41;33.52;97332.91;5005235;28;20058;-82
2022/02/16 10:25:16;;;;;;;15.23;7.60;;;;;;;17.92;34.30;97327.78;5042122;28;20079;-81
2022/02/16 10:28:06;;;;;;;11.88;6.35;;;;;;;17.46;35.45;97342.91;5022428;28;20029;-82
2022/02/16 10:30:32;;;;;;;11.45;6.30;;;;;;;16.86;36.23;97326.94;4989685;28;20501;-83
2022/02/16 10:33:17;;;;;;;15.45;6.78;;;;;;;17.14;35.89;97331.50;5026014;28;20472;-82
2022/02/16 10:35:44;;;;;;;17.38;9.15;;;;;;;17.25;35.70;97328.69;5016519;28;20022;-81
2022/02/16 10:38:10;;;;;;;19.73;11.23;;;;;;;17.20;36.00;97320.97;5021176;28;20021;-83
2022/02/16 10:40:35;;;;;;;11.57;5.43;;;;;;;17.21;35.57;97328.09;5018004;28;20035;-82
2022/02/16 10:43:01;;;;;;;15.77;9.18;;;;;;;17.19;35.93;97321.13;5019986;28;20486;-81
2022/02/16 10:45:31;;;;;;;19.05;11.60;;;;;;;17.12;36.19;97317.28;5030634;28;20107;-82
2022/02/16 10:48:06;;;;;;;11.65;7.05;;;;;;;17.14;36.12;97326.94;5034804;28;20055;-81
2022/02/16 10:50:40;;;;;;;14.07;7.60;;;;;;;17.01;36.54;97318.25;5019246;28;20489;-81
2022/02/16 10:53:09;;;;;;;15.65;6.80;;;;;;;17.13;36.27;97313.59;4980015;28;20029;-82
2022/02/16 10:55:37;;;;;;;13.30;8.13;;;;;;;16.94;36.57;97292.81;5014677;28;20025;-82
2022/02/16 10:58:04;;;;;;;10.43;6.03;;;;;;;16.52;37.13;97300.22;4987002;28;20030;-82
2022/02/16 11:00:33;;;;;;;14.57;7.65;;;;;;;16.54;37.41;97300.97;5028169;28;20017;-81
2022/02/16 11:02:59;;;;;;;17.92;9.35;;;;;;;16.65;37.25;97292.75;5039356;28;20029;-81
2022/02/16 11:05:26;;;;;;;14.35;7.22;;;;;;;16.59;37.11;97282.50;4997133;28;20477;-81
2022/02/16 11:07:52;;;;;;;16.10;8.50;;;;;;;16.90;37.03;97306.72;4991010;28;20034;-81
2022/02/16 11:10:20;;;;;;;16.33;7.38;;;;;;;17.17;36.50;97304.19;4992408;28;20033;-81
2022/02/16 11:12:46;;;;;;;19.20;10.50;;;;;;;17.53;35.79;97291.81;5025959;28;20036;-81
2022/02/16 11:15:14;;;;;;;15.43;8.13;;;;;;;17.45;35.90;97289.81;5023327;28;20030;-82
2022/02/16 11:17:39;;;;;;;18.25;8.57;;;;;;;17.17;36.46;97285.25;5020733;28;20450;-80
2022/02/16 11:20:18;;;;;;;18.15;8.13;;;;;;;17.17;36.71;97291.53;4999089;28;20026;-81
2022/02/16 11:23:00;;;;;;;12.77;7.28;;;;;;;17.27;36.94;97284.28;5010825;28;20087;-81
2022/02/16 11:25:33;;;;;;;14.60;7.70;;;;;;;17.45;36.26;97291.66;5020245;28;20029;-82